createdAt,value
2023-05-09T00:01:12.941Z,15.57
2023-05-09T00:06:16.627Z,19.55
2023-05-09T00:11:22.006Z,20.90
2023-05-09T00:16:27.026Z,13.57
2023-05-09T00:21:30.834Z,12.90
2023-05-09T00:26:34.478Z,11.25
2023-05-09T00:31:39.433Z,13.48
2023-05-09T00:36:42.942Z,15.48
2023-05-09T00:41:46.326Z,16.15
2023-05-09T00:46:51.151Z,17.08
2023-05-09T00:51:55.362Z,16.45
2023-05-09T00:56:58.733Z,14.13
2023-05-09T01:02:08.886Z,19.02
2023-05-09T01:07:25.044Z,15.88
2023-05-09T01:12:38.528Z,13.75
2023-05-09T01:17:50.991Z,13.90
2023-05-09T01:23:04.713Z,12.07
2023-05-09T01:28:15.580Z,14.15
2023-05-09T01:33:22.701Z,10.43
2023-05-09T01:38:28.811Z,9.40
2023-05-09T01:43:34.638Z,23.70
2023-05-09T01:48:41.356Z,11.27
2023-05-09T01:53:48.968Z,12.45
2023-05-09T01:58:54.282Z,11.40
2023-05-09T02:03:59.881Z,21.98
2023-05-09T02:09:04.268Z,17.83
2023-05-09T02:14:10.863Z,12.52
2023-05-09T02:19:17.561Z,13.68
2023-05-09T02:24:21.043Z,12.65
2023-05-09T02:29:31.320Z,9.77
2023-05-09T02:34:38.316Z,9.45
2023-05-09T02:39:42.162Z,13.20
2023-05-09T02:44:46.729Z,12.63
2023-05-09T02:49:54.412Z,17.13
2023-05-09T02:55:00.144Z,11.32
2023-05-09T03:00:10.526Z,18.38
2023-05-09T03:05:20.630Z,17.88
2023-05-09T03:10:24.281Z,11.13
2023-05-09T03:15:27.874Z,10.85
2023-05-09T03:20:32.703Z,12.48
2023-05-09T03:25:37.757Z,14.32
2023-05-09T03:30:41.218Z,20.33
2023-05-09T03:35:46.003Z,31.05
2023-05-09T03:40:49.265Z,7.95
2023-05-09T03:45:52.666Z,58.80
2023-05-09T03:50:57.538Z,38.17
2023-05-09T03:56:00.955Z,21.70
2023-05-09T04:01:04.874Z,14.32
2023-05-09T04:06:09.816Z,19.27
2023-05-09T04:11:13.218Z,13.50
2023-05-09T04:16:16.469Z,17.73
2023-05-09T04:21:21.143Z,14.10
2023-05-09T04:26:24.914Z,74.68
2023-05-09T04:31:29.240Z,46.00
2023-05-09T04:36:34.149Z,43.03
2023-05-09T04:41:39.314Z,15.35
2023-05-09T04:46:48.620Z,43.30
2023-05-09T04:51:54.061Z,7.97
2023-05-09T04:57:06.693Z,7.78
2023-05-09T05:02:22.728Z,7.78
2023-05-09T05:07:36.988Z,16.52
2023-05-09T05:12:44.995Z,39.20
2023-05-09T05:17:56.150Z,25.88
2023-05-09T05:23:03.274Z,11.00
2023-05-09T05:28:07.486Z,7.70
2023-05-09T05:33:17.097Z,7.28
2023-05-09T05:38:22.493Z,9.52
2023-05-09T05:43:26.994Z,8.77
2023-05-09T05:48:31.559Z,10.75
2023-05-09T05:53:43.768Z,10.80
2023-05-09T05:58:47.180Z,9.85
2023-05-09T06:03:55.596Z,9.02
2023-05-09T06:09:00.548Z,11.50
2023-05-09T06:14:05.604Z,12.23
2023-05-09T06:19:08.955Z,13.60
2023-05-09T06:24:23.865Z,14.93
2023-05-09T06:29:40.319Z,21.92
2023-05-09T06:34:43.738Z,12.13
2023-05-09T06:39:48.662Z,12.65
2023-05-09T06:44:55.639Z,14.48
2023-05-09T06:50:02.368Z,14.85
2023-05-09T06:55:09.837Z,11.35
2023-05-09T07:05:44.340Z,14.90
2023-05-09T07:16:21.479Z,13.85
2023-05-09T07:21:27.757Z,13.15
2023-05-09T07:26:36.831Z,11.98
2023-05-09T07:31:41.910Z,15.15
2023-05-09T07:36:47.080Z,12.57
2023-05-09T07:41:51.943Z,11.82
2023-05-09T07:46:55.983Z,9.25
2023-05-09T07:51:59.514Z,11.93
2023-05-09T08:02:32.834Z,11.98
2023-05-09T08:07:37.286Z,10.38
2023-05-09T08:12:48.718Z,10.98
2023-05-09T08:17:53.850Z,13.85
2023-05-09T08:22:58.892Z,12.35
2023-05-09T08:28:03.761Z,12.98
2023-05-09T08:33:07.172Z,17.27
2023-05-09T08:38:11.135Z,10.60
2023-05-09T08:43:18.618Z,11.75
2023-05-09T08:48:23.938Z,9.55
2023-05-09T08:53:28.622Z,11.73
2023-05-09T08:58:34.568Z,12.68
2023-05-09T09:03:39.362Z,8.63
2023-05-09T09:08:43.665Z,7.90
2023-05-09T09:13:51.851Z,4.10
2023-05-09T09:18:58.606Z,3.90
2023-05-09T09:24:04.869Z,4.53
2023-05-09T09:29:09.792Z,4.40
2023-05-09T09:34:15.799Z,8.00
2023-05-09T09:39:26.535Z,2.25
2023-05-09T09:44:33.662Z,3.70
2023-05-09T09:49:37.349Z,3.13
2023-05-09T09:54:48.071Z,4.85
2023-05-09T10:05:38.244Z,3.40
2023-05-09T10:10:43.007Z,4.47
2023-05-09T10:15:53.660Z,2.30
2023-05-09T10:21:09.476Z,2.30
2023-05-09T10:26:19.297Z,6.68
2023-05-09T10:31:28.349Z,2.58
2023-05-09T10:36:34.486Z,3.03
2023-05-09T10:41:40.312Z,3.22
2023-05-09T10:46:47.374Z,2.78
2023-05-09T10:51:52.574Z,3.40
2023-05-09T10:56:56.867Z,4.75
2023-05-09T11:02:04.472Z,4.18
2023-05-09T11:07:26.537Z,5.45
2023-05-09T11:12:29.884Z,3.13
2023-05-09T11:17:44.764Z,2.88
2023-05-09T11:22:48.691Z,5.60
2023-05-09T11:27:59.020Z,2.33
2023-05-09T11:33:08.699Z,2.40
2023-05-09T11:38:23.166Z,3.05
2023-05-09T11:43:30.034Z,1.98
2023-05-09T11:48:39.716Z,6.53
2023-05-09T11:53:47.317Z,3.38
2023-05-09T11:58:54.538Z,4.00
2023-05-09T12:04:00.256Z,3.50
2023-05-09T12:09:08.621Z,2.45
2023-05-09T12:14:13.159Z,1.92
2023-05-09T12:19:22.368Z,2.15
2023-05-09T12:24:34.359Z,3.38
2023-05-09T12:29:38.463Z,3.50
2023-05-09T12:34:44.983Z,5.53
2023-05-09T12:40:06.699Z,6.18
2023-05-09T12:45:12.472Z,4.15
2023-05-09T12:50:23.117Z,6.25
2023-05-09T12:55:33.026Z,4.88
2023-05-09T13:00:47.500Z,5.40
2023-05-09T13:06:03.948Z,2.30
2023-05-09T13:11:15.394Z,27.13
2023-05-09T13:16:20.234Z,8.98
2023-05-09T13:21:26.358Z,7.00
2023-05-09T13:26:33.898Z,5.60
2023-05-09T13:31:37.639Z,3.17
2023-05-09T13:36:46.367Z,5.85
2023-05-09T13:41:55.215Z,3.40
2023-05-09T13:47:00.734Z,2.85
2023-05-09T13:52:07.776Z,6.13
2023-05-09T13:57:11.231Z,4.70
2023-05-09T14:02:16.302Z,3.80
2023-05-09T14:07:24.836Z,3.95
2023-05-09T14:12:34.287Z,5.88
2023-05-09T14:17:37.739Z,5.57
2023-05-09T14:22:42.865Z,2.70
2023-05-09T14:27:48.543Z,3.53
2023-05-09T14:32:53.142Z,3.65
2023-05-09T14:37:58.120Z,2.08
2023-05-09T14:43:13.700Z,4.65
2023-05-09T14:48:19.630Z,4.28
2023-05-09T14:53:27.976Z,5.53
2023-05-09T14:58:38.349Z,4.35
2023-05-09T15:03:58.549Z,3.33
2023-05-09T15:09:11.008Z,4.57
2023-05-09T15:14:21.507Z,3.90
2023-05-09T15:19:39.073Z,1.25
2023-05-09T15:24:51.405Z,1.83
2023-05-09T15:29:57.960Z,1.90
2023-05-09T15:35:05.983Z,3.35
2023-05-09T15:40:14.478Z,3.08
2023-05-09T15:45:20.169Z,3.83
2023-05-09T15:55:53.000Z,1.70
2023-05-09T16:00:57.700Z,2.67
2023-05-09T16:06:05.196Z,1.92
2023-05-09T16:11:10.948Z,2.92
2023-05-09T16:16:14.252Z,3.53
2023-05-09T16:21:19.559Z,2.70
2023-05-09T16:26:30.288Z,2.20
2023-05-09T16:31:35.943Z,4.65
2023-05-09T16:42:09.312Z,5.93
2023-05-09T16:47:13.041Z,2.60
2023-05-09T16:52:16.453Z,3.33
2023-05-09T16:57:21.219Z,1.88
2023-05-09T17:02:24.684Z,2.83
2023-05-09T17:07:28.547Z,7.50
2023-05-09T17:12:37.571Z,3.35
2023-05-09T17:17:42.864Z,2.13
2023-05-09T17:22:57.961Z,3.10
2023-05-09T17:28:12.571Z,6.25
2023-05-09T17:33:29.296Z,1.17
2023-05-09T17:38:38.843Z,1.70
2023-05-09T17:43:46.545Z,1.35
2023-05-09T17:48:51.882Z,1.98
2023-05-09T17:53:56.888Z,2.28
2023-05-09T17:59:05.557Z,2.38
2023-05-09T18:04:10.762Z,2.25
2023-05-09T18:09:14.307Z,1.85
2023-05-09T18:14:21.987Z,8.77
2023-05-09T18:19:27.441Z,1.05
2023-05-09T18:24:33.866Z,1.15
2023-05-09T18:29:38.605Z,0.75
2023-05-09T18:34:50.111Z,4.88
2023-05-09T18:39:54.935Z,2.90
2023-05-09T18:45:01.061Z,1.17
2023-05-09T18:50:08.608Z,1.40
2023-05-09T18:55:18.013Z,4.60
2023-05-09T19:00:26.489Z,4.90
2023-05-09T19:05:31.826Z,1.10
2023-05-09T19:10:38.192Z,4.38
2023-05-09T19:15:44.560Z,2.15
2023-05-09T19:20:54.364Z,1.45
2023-05-09T19:26:01.307Z,3.67
2023-05-09T19:31:11.765Z,1.80
2023-05-09T19:36:22.373Z,1.35
2023-05-09T19:41:40.866Z,3.15
2023-05-09T19:46:45.902Z,1.35
2023-05-09T19:51:53.484Z,6.55
2023-05-09T19:56:59.822Z,1.88
2023-05-09T20:02:12.412Z,2.78
2023-05-09T20:07:18.784Z,1.17
2023-05-09T20:12:26.368Z,1.85
2023-05-09T20:17:33.322Z,2.60
2023-05-09T20:22:40.574Z,1.45
2023-05-09T20:27:44.004Z,1.92
2023-05-09T20:32:56.781Z,2.22
2023-05-09T20:38:02.817Z,4.05
2023-05-09T20:43:15.968Z,1.63
2023-05-09T20:48:23.513Z,2.22
2023-05-09T20:53:31.891Z,4.47
2023-05-09T20:58:36.246Z,5.13
2023-05-09T21:03:41.335Z,4.93
2023-05-09T21:08:45.019Z,1.20
2023-05-09T21:13:49.710Z,1.48
2023-05-09T21:18:59.644Z,1.90
2023-05-09T21:24:09.167Z,1.60
2023-05-09T21:29:13.524Z,1.52
2023-05-09T21:34:18.961Z,1.90
2023-05-09T21:39:27.576Z,1.65
2023-05-09T21:44:33.751Z,6.85
2023-05-09T21:49:42.442Z,1.63
2023-05-09T21:54:48.655Z,2.15
2023-05-09T21:59:54.599Z,1.08
2023-05-09T22:05:01.435Z,2.17
2023-05-09T22:10:08.297Z,1.00
2023-05-09T22:15:11.863Z,1.00
2023-05-09T22:20:17.575Z,2.78
2023-05-09T22:25:24.753Z,0.88
2023-05-09T22:30:29.489Z,1.00
2023-05-09T22:35:39.220Z,2.05
2023-05-09T22:40:49.581Z,0.82
2023-05-09T22:45:53.691Z,27.27
2023-05-09T22:50:59.669Z,1.05
2023-05-09T22:56:03.349Z,1.15
2023-05-09T23:01:07.074Z,1.88
2023-05-09T23:06:12.259Z,1.42
2023-05-09T23:11:17.113Z,1.50
2023-05-09T23:16:21.754Z,0.77
2023-05-09T23:21:34.803Z,1.70
2023-05-09T23:26:38.393Z,4.07
2023-05-09T23:31:42.257Z,3.65
2023-05-09T23:36:48.268Z,0.52
2023-05-09T23:41:51.863Z,0.85
2023-05-09T23:46:56.449Z,0.65
2023-05-09T23:52:03.859Z,0.45
2023-05-09T23:57:07.943Z,0.30
